Time;durP1;ratioP1;P1;durP2;ratioP2;P2;SDS_P1;SDS_P2;PMS_P1;PMS_P2;Temp;Humidity;BMP_temperature;BMP_pressure;BME280_temperature;BME280_humidity;BME280_pressure;Samples;Min_cycle;Max_cycle;Signal;HPM_P1;HPM_P2
2023/05/13 00:00:20;;;;;;;;;;;;;;;19.56;64.30;101870.19;1251082;23;633;-62
2023/05/13 00:01:11;;;;;;;;;;;;;;;19.54;64.93;101873.00;1249353;23;712;-62
2023/05/13 00:02:01;;;;;;;;;;;;;;;19.54;64.45;101862.19;1250876;23;598;-62
2023/05/13 00:02:52;;;;;;;;;;;;;;;19.55;65.16;101872.03;1250713;23;673;-62
2023/05/13 00:03:42;;;;;;;;;;;;;;;19.54;64.24;101867.59;1251058;23;617;-62
2023/05/13 00:04:32;;;;;;;;;;;;;;;19.55;64.57;101872.03;1247227;23;670;-62
2023/05/13 00:05:23;;;;;;;;;;;;;;;19.54;65.11;101869.44;1250575;23;586;-62
2023/05/13 00:06:13;;;;;;;;;;;;;;;19.53;64.37;101868.59;1250906;23;871;-62
2023/05/13 00:07:04;;;;;;;;;;;;;;;19.54;64.83;101875.72;1251061;23;658;-62
2023/05/13 00:07:54;;;;;;;;;;;;;;;19.54;64.99;101870.31;1251038;23;622;-62
2023/05/13 00:08:45;;;;;;;;;;;;;;;19.53;65.14;101874.00;1251154;23;657;-62
2023/05/13 00:09:35;;;;;;;;;;;;;;;19.52;64.68;101872.31;1250930;23;649;-62
2023/05/13 00:10:26;;;;;;;;;;;;;;;19.51;64.79;101867.91;1248400;23;763;-62
2023/05/13 00:11:16;;;;;;;;;;;;;;;19.51;64.74;101867.91;1251052;23;642;-62
2023/05/13 00:12:07;;;;;;;;;;;;;;;19.53;64.78;101873.13;1250872;23;626;-62
2023/05/13 00:12:57;;;;;;;;;;;;;;;19.52;64.75;101874.16;1246708;23;662;-62
2023/05/13 00:13:47;;;;;;;;;;;;;;;19.51;65.17;101876.00;1250930;23;653;-62
2023/05/13 00:14:38;;;;;;;;;;;;;;;19.52;64.82;101876.88;1251028;23;669;-62
2023/05/13 00:15:28;;;;;;;;;;;;;;;19.51;65.08;101873.31;1251061;23;665;-62
2023/05/13 00:16:21;;;;;;;;;;;;;;;19.51;64.75;101875.16;1251173;23;626;-62
2023/05/13 00:17:12;;;;;;;;;;;;;;;19.48;64.90;101865.41;1250901;23;645;-62
2023/05/13 00:18:02;;;;;;;;;;;;;;;19.47;64.99;101877.22;1251071;23;605;-62
2023/05/13 00:18:52;;;;;;;;;;;;;;;19.46;64.77;101866.53;1247063;23;748;-62
2023/05/13 00:19:43;;;;;;;;;;;;;;;19.46;64.51;101875.50;1250998;23;1939;-62
2023/05/13 00:20:33;;;;;;;;;;;;;;;19.47;64.52;101871.81;1247324;23;674;-62
2023/05/13 00:21:24;;;;;;;;;;;;;;;19.47;64.84;101868.25;1247503;23;642;-62
2023/05/13 00:22:14;;;;;;;;;;;;;;;19.47;64.48;101869.09;1247555;23;646;-62
2023/05/13 00:23:06;;;;;;;;;;;;;;;19.48;64.83;101867.25;1250902;23;613;-62
2023/05/13 00:23:57;;;;;;;;;;;;;;;19.49;65.25;101866.28;1250767;23;653;-62
2023/05/13 00:24:47;;;;;;;;;;;;;;;19.46;64.82;101864.69;1249374;23;658;-62
2023/05/13 00:25:40;;;;;;;;;;;;;;;19.47;64.69;101863.69;1246974;23;706;-62
2023/05/13 00:26:30;;;;;;;;;;;;;;;19.48;64.57;101868.13;1251153;23;614;-62
2023/05/13 00:27:20;;;;;;;;;;;;;;;19.47;65.16;101861.00;1250938;23;637;-62
2023/05/13 00:28:13;;;;;;;;;;;;;;;19.48;64.49;101864.56;1251081;23;673;-62
2023/05/13 00:29:04;;;;;;;;;;;;;;;19.48;64.82;101869.97;1251116;23;637;-62
2023/05/13 00:29:54;;;;;;;;;;;;;;;19.46;64.85;101878.22;1250985;23;629;-62
2023/05/13 00:30:45;;;;;;;;;;;;;;;19.45;64.81;101871.09;1247533;23;650;-62
2023/05/13 00:31:36;;;;;;;;;;;;;;;19.45;64.67;101867.53;1247359;23;690;-62
2023/05/13 00:32:26;;;;;;;;;;;;;;;19.43;64.54;101862.25;1249353;23;669;-62
2023/05/13 00:33:17;;;;;;;;;;;;;;;19.44;64.80;101863.97;1251211;23;630;-62
2023/05/13 00:34:07;;;;;;;;;;;;;;;19.42;65.35;101863.22;1251162;23;633;-62
2023/05/13 00:34:58;;;;;;;;;;;;;;;19.42;64.64;101868.63;1247563;23;602;-62
2023/05/13 00:35:48;;;;;;;;;;;;;;;19.41;65.05;101866.91;1251327;23;638;-62
2023/05/13 00:36:38;;;;;;;;;;;;;;;19.43;64.79;101867.66;1251362;23;630;-62
2023/05/13 00:37:29;;;;;;;;;;;;;;;19.42;64.54;101868.63;1251370;23;614;-62
2023/05/13 00:38:19;;;;;;;;;;;;;;;19.41;65.15;101867.78;1251373;23;606;-62
2023/05/13 00:39:10;;;;;;;;;;;;;;;19.40;65.13;101865.19;1251275;23;610;-62
2023/05/13 00:40:00;;;;;;;;;;;;;;;19.39;65.32;101868.91;1247272;23;1927;-62
2023/05/13 00:40:51;;;;;;;;;;;;;;;19.35;65.34;101867.44;1249766;23;537;-62
2023/05/13 00:41:42;;;;;;;;;;;;;;;19.33;65.27;101873.00;1247703;23;639;-62
2023/05/13 00:42:32;;;;;;;;;;;;;;;19.32;65.84;101868.59;1247698;23;678;-62
2023/05/13 00:43:23;;;;;;;;;;;;;;;19.30;64.99;101867.84;1247902;23;575;-62
2023/05/13 00:44:13;;;;;;;;;;;;;;;19.31;65.17;101868.72;1251297;23;896;-62
2023/05/13 00:45:04;;;;;;;;;;;;;;;19.32;65.17;101870.44;1251193;23;625;-62
2023/05/13 00:45:54;;;;;;;;;;;;;;;19.31;65.27;101868.72;1251390;23;669;-62
2023/05/13 00:46:45;;;;;;;;;;;;;;;19.31;65.06;101866.00;1247509;23;654;-62
2023/05/13 00:47:35;;;;;;;;;;;;;;;19.32;65.65;101865.03;1251431;23;597;-62
2023/05/13 00:48:25;;;;;;;;;;;;;;;19.31;65.03;101876.81;1247135;23;1147;-62
2023/05/13 00:49:16;;;;;;;;;;;;;;;19.29;64.80;101858.03;1247092;23;658;-62
2023/05/13 00:50:06;;;;;;;;;;;;;;;19.30;65.04;101872.41;1251291;23;622;-62
2023/05/13 00:50:57;;;;;;;;;;;;;;;19.29;64.88;101868.84;1251254;23;610;-62
2023/05/13 00:51:47;;;;;;;;;;;;;;;19.29;65.56;101871.53;1251338;23;650;-62
2023/05/13 00:52:37;;;;;;;;;;;;;;;19.30;65.09;101870.56;1251255;23;657;-62
2023/05/13 00:53:28;;;;;;;;;;;;;;;19.29;64.97;101874.25;1249241;23;677;-62
2023/05/13 00:54:18;;;;;;;;;;;;;;;19.29;64.96;101867.97;1247698;23;603;-62
2023/05/13 00:55:09;;;;;;;;;;;;;;;19.28;64.98;101869.81;1249796;23;654;-62
2023/05/13 00:55:59;;;;;;;;;;;;;;;19.29;64.85;101865.28;1251478;23;653;-62
2023/05/13 00:56:53;;;;;;;;;;;;;;;19.29;65.60;101871.53;1251201;23;637;-62
2023/05/13 00:57:43;;;;;;;;;;;;;;;19.29;65.35;101867.97;1251351;23;657;-62
2023/05/13 00:58:34;;;;;;;;;;;;;;;19.27;65.40;101861.84;1251142;23;669;-63
2023/05/13 00:59:24;;;;;;;;;;;;;;;19.28;64.82;101868.97;1251536;23;645;-62
2023/05/13 01:00:15;;;;;;;;;;;;;;;19.27;64.86;101878.91;1251200;23;669;-62
2023/05/13 01:01:05;;;;;;;;;;;;;;;19.26;64.86;101873.66;1251334;23;1010;-62
2023/05/13 01:01:55;;;;;;;;;;;;;;;19.26;65.18;101865.53;1251126;23;657;-62
2023/05/13 01:02:46;;;;;;;;;;;;;;;19.25;65.62;101869.22;1247384;23;650;-62
2023/05/13 01:03:36;;;;;;;;;;;;;;;19.26;65.17;101865.53;1247138;23;646;-62
2023/05/13 01:04:27;;;;;;;;;;;;;;;19.25;64.96;101869.22;1248326;23;638;-63
2023/05/13 01:05:17;;;;;;;;;;;;;;;19.25;65.04;101874.63;1251373;23;598;-62
2023/05/13 01:06:08;;;;;;;;;;;;;;;19.21;65.19;101865.06;1247394;23;666;-62
2023/05/13 01:06:59;;;;;;;;;;;;;;;19.20;65.35;101869.59;1251187;23;657;-62
2023/05/13 01:07:50;;;;;;;;;;;;;;;19.21;65.22;101873.16;1251232;23;608;-62
2023/05/13 01:08:40;;;;;;;;;;;;;;;19.19;65.31;101864.34;1251556;23;611;-62
2023/05/13 01:09:30;;;;;;;;;;;;;;;19.22;65.59;101866.78;1251343;23;632;-63
2023/05/13 01:10:21;;;;;;;;;;;;;;;19.23;65.76;101865.78;1251161;23;669;-63
2023/05/13 01:11:11;;;;;;;;;;;;;;;19.23;65.47;101865.78;1251330;23;606;-63
2023/05/13 01:12:02;;;;;;;;;;;;;;;19.24;64.92;101862.09;1251189;23;629;-63
2023/05/13 01:12:52;;;;;;;;;;;;;;;19.25;64.89;101863.81;1247571;23;626;-62
2023/05/13 01:13:43;;;;;;;;;;;;;;;19.24;65.11;101862.97;1247682;23;674;-62
2023/05/13 01:14:33;;;;;;;;;;;;;;;19.24;65.18;101854.84;1247901;23;614;-62
2023/05/13 01:15:23;;;;;;;;;;;;;;;19.24;65.22;101857.56;1251222;23;658;-62
2023/05/13 01:16:14;;;;;;;;;;;;;;;19.24;65.06;101859.41;1247485;23;651;-62
2023/05/13 01:17:04;;;;;;;;;;;;;;;19.21;65.42;101851.56;1251284;23;610;-62
2023/05/13 01:17:55;;;;;;;;;;;;;;;19.19;65.90;101856.22;1250510;23;649;-62
2023/05/13 01:18:45;;;;;;;;;;;;;;;19.17;65.60;101859.06;1247043;23;599;-62
2023/05/13 01:19:35;;;;;;;;;;;;;;;19.17;65.37;101855.53;1251156;23;660;-63
2023/05/13 01:20:26;;;;;;;;;;;;;;;19.18;65.77;101859.91;1251517;23;633;-63
2023/05/13 01:21:16;;;;;;;;;;;;;;;19.19;65.46;101859.78;1251204;23;614;-62
2023/05/13 01:22:07;;;;;;;;;;;;;;;19.19;65.72;101853.53;1247513;23;642;-62
2023/05/13 01:22:57;;;;;;;;;;;;;;;19.17;65.49;101850.94;1247076;23;608;-62
2023/05/13 01:23:48;;;;;;;;;;;;;;;19.19;65.76;101853.53;1247333;23;706;-63
2023/05/13 01:24:38;;;;;;;;;;;;;;;19.18;65.25;101857.22;1247071;23;627;-62
2023/05/13 01:25:28;;;;;;;;;;;;;;;19.15;65.81;101858.34;1251147;23;689;-62
2023/05/13 01:26:19;;;;;;;;;;;;;;;19.14;65.30;101850.38;1249528;23;727;-62
2023/05/13 01:27:09;;;;;;;;;;;;;;;19.11;65.99;101851.50;1251234;23;591;-62
2023/05/13 01:28:00;;;;;;;;;;;;;;;19.13;65.23;101851.38;1251389;23;973;-62
2023/05/13 01:28:50;;;;;;;;;;;;;;;19.13;65.46;101851.38;1251329;23;606;-62
2023/05/13 01:29:41;;;;;;;;;;;;;;;19.14;65.84;101859.34;1251173;23;606;-62
2023/05/13 01:30:31;;;;;;;;;;;;;;;19.13;65.76;101862.16;1251377;23;641;-62
2023/05/13 01:31:21;;;;;;;;;;;;;;;19.13;65.35;101857.63;1251151;23;689;-62
2023/05/13 01:32:12;;;;;;;;;;;;;;;19.14;65.13;101861.19;1247389;23;638;-62
2023/05/13 01:33:02;;;;;;;;;;;;;;;19.15;65.11;101852.09;1247569;23;623;-62
2023/05/13 01:33:53;;;;;;;;;;;;;;;19.15;65.10;101860.19;1248173;23;623;-62
2023/05/13 01:34:43;;;;;;;;;;;;;;;19.16;65.70;101861.91;1251427;23;642;-62
2023/05/13 01:35:34;;;;;;;;;;;;;;;19.15;65.56;101860.19;1251289;23;670;-62
2023/05/13 01:36:24;;;;;;;;;;;;;;;19.15;66.02;101857.50;1251294;23;597;-62
2023/05/13 01:37:14;;;;;;;;;;;;;;;19.15;65.16;101857.50;1251305;23;749;-62
2023/05/13 01:38:05;;;;;;;;;;;;;;;19.15;65.21;101852.09;1251364;23;617;-62
2023/05/13 01:38:55;;;;;;;;;;;;;;;19.11;65.54;101856.03;1251234;23;633;-62
2023/05/13 01:39:46;;;;;;;;;;;;;;;19.11;65.65;101850.63;1251002;23;1939;-62
2023/05/13 01:40:36;;;;;;;;;;;;;;;19.11;65.48;101856.03;1247052;23;671;-62
2023/05/13 01:41:27;;;;;;;;;;;;;;;19.10;65.27;101848.91;1247314;23;638;-62
2023/05/13 01:42:17;;;;;;;;;;;;;;;19.11;65.03;101854.19;1249525;23;654;-63
2023/05/13 01:43:07;;;;;;;;;;;;;;;19.10;65.09;101857.88;1251194;23;646;-62
2023/05/13 01:43:58;;;;;;;;;;;;;;;19.08;65.09;101858.00;1247415;23;667;-62
2023/05/13 01:44:48;;;;;;;;;;;;;;;19.08;65.91;101855.31;1251141;23;692;-62
2023/05/13 01:45:39;;;;;;;;;;;;;;;19.08;65.01;101849.91;1250949;23;626;-62
2023/05/13 01:46:29;;;;;;;;;;;;;;;19.10;65.41;101859.72;1251296;23;618;-62
2023/05/13 01:47:20;;;;;;;;;;;;;;;19.09;65.46;101858.88;1250672;23;629;-62
2023/05/13 01:48:10;;;;;;;;;;;;;;;19.07;65.47;101867.09;1251051;23;1105;-62
2023/05/13 01:49:00;;;;;;;;;;;;;;;19.06;65.31;101854.56;1251242;23;594;-62
2023/05/13 01:49:51;;;;;;;;;;;;;;;19.06;65.32;101859.97;1251137;23;645;-62
2023/05/13 01:50:41;;;;;;;;;;;;;;;19.05;65.45;101857.41;1251438;23;641;-62
2023/05/13 01:51:32;;;;;;;;;;;;;;;19.04;65.91;101856.53;1251276;23;606;-62
2023/05/13 01:52:22;;;;;;;;;;;;;;;19.04;65.81;101851.13;1249573;23;590;-62
2023/05/13 01:53:13;;;;;;;;;;;;;;;19.06;64.77;101854.56;1250796;23;684;-62
2023/05/13 01:54:03;;;;;;;;;;;;;;;19.04;65.05;101853.84;1251397;23;723;-62
2023/05/13 01:54:53;;;;;;;;;;;;;;;19.03;65.30;101859.38;1251232;23;653;-62
2023/05/13 01:55:44;;;;;;;;;;;;;;;19.03;65.41;101848.56;1251055;23;669;-62
2023/05/13 01:56:34;;;;;;;;;;;;;;;19.03;65.58;101846.72;1251272;23;598;-62
2023/05/13 01:57:25;;;;;;;;;;;;;;;19.01;65.96;101851.41;1251007;23;622;-62
2023/05/13 01:58:15;;;;;;;;;;;;;;;19.02;65.88;101847.72;1251196;23;594;-62
2023/05/13 01:59:06;;;;;;;;;;;;;;;19.00;65.50;101852.38;1247282;23;619;-62
2023/05/13 01:59:56;;;;;;;;;;;;;;;19.00;65.65;101855.09;1251250;23;1949;-62
2023/05/13 02:00:47;;;;;;;;;;;;;;;19.02;65.53;101854.97;1251121;23;677;-62
2023/05/13 02:01:39;;;;;;;;;;;;;;;19.01;65.42;101850.53;1250786;23;625;-62
2023/05/13 02:02:29;;;;;;;;;;;;;;;18.96;65.96;101848.25;1246913;23;619;-62
2023/05/13 02:03:20;;;;;;;;;;;;;;;18.94;65.13;101850.22;1251051;23;1069;-62
2023/05/13 02:04:10;;;;;;;;;;;;;;;18.94;65.69;101858.31;1251275;23;609;-62
2023/05/13 02:05:01;;;;;;;;;;;;;;;18.94;65.70;101852.06;1251012;23;602;-62
2023/05/13 02:05:51;;;;;;;;;;;;;;;18.93;65.84;101856.59;1251218;23;629;-62
2023/05/13 02:06:42;;;;;;;;;;;;;;;18.94;65.93;101850.22;1250967;23;677;-62
2023/05/13 02:07:33;;;;;;;;;;;;;;;18.94;65.80;101852.91;1251191;23;641;-62
2023/05/13 02:08:24;;;;;;;;;;;;;;;18.96;66.00;101860.91;1251354;23;580;-62
2023/05/13 02:09:15;;;;;;;;;;;;;;;18.94;65.57;101850.22;1247563;23;595;-62
2023/05/13 02:10:05;;;;;;;;;;;;;;;18.93;65.43;101851.19;1250017;23;634;-62
2023/05/13 02:10:56;;;;;;;;;;;;;;;18.94;65.53;101854.75;1249509;23;606;-62
2023/05/13 02:11:46;;;;;;;;;;;;;;;18.93;65.71;101843.09;1251066;23;665;-62
2023/05/13 02:12:37;;;;;;;;;;;;;;;18.91;65.81;101853.16;1251128;23;621;-62
2023/05/13 02:13:27;;;;;;;;;;;;;;;18.89;65.69;101849.75;1247058;23;639;-62
2023/05/13 02:14:18;;;;;;;;;;;;;;;18.90;65.99;101851.47;1251200;23;649;-62
2023/05/13 02:15:08;;;;;;;;;;;;;;;18.92;65.91;101849.47;1251209;23;601;-62
2023/05/13 02:15:59;;;;;;;;;;;;;;;18.91;65.57;101855.88;1246590;23;619;-62
2023/05/13 02:16:50;;;;;;;;;;;;;;;18.91;65.23;101850.47;1247238;23;678;-63
2023/05/13 02:17:41;;;;;;;;;;;;;;;18.92;65.74;101857.59;1246962;23;694;-62
2023/05/13 02:18:31;;;;;;;;;;;;;;;18.92;65.64;101851.31;1247085;23;599;-62
2023/05/13 02:19:22;;;;;;;;;;;;;;;18.91;65.79;101850.47;1251104;23;804;-62
2023/05/13 02:20:12;;;;;;;;;;;;;;;18.93;66.26;101858.44;1251441;23;678;-62
2023/05/13 02:21:02;;;;;;;;;;;;;;;18.92;66.22;101851.31;1251210;23;617;-62
2023/05/13 02:21:53;;;;;;;;;;;;;;;18.89;65.53;101855.13;1250997;23;672;-62
2023/05/13 02:22:43;;;;;;;;;;;;;;;18.87;65.76;101854.41;1251266;23;641;-62
2023/05/13 02:23:34;;;;;;;;;;;;;;;18.89;65.58;101851.59;1247245;23;697;-62
2023/05/13 02:24:24;;;;;;;;;;;;;;;18.89;65.58;101856.97;1246810;23;639;-62
2023/05/13 02:25:15;;;;;;;;;;;;;;;18.89;65.83;101854.28;1247349;23;662;-62
2023/05/13 02:26:05;;;;;;;;;;;;;;;18.90;66.03;101853.31;1251165;23;610;-62
2023/05/13 02:26:56;;;;;;;;;;;;;;;18.89;65.71;101860.53;1250985;23;610;-62
2023/05/13 02:27:46;;;;;;;;;;;;;;;18.90;65.69;101861.41;1251245;23;641;-62
2023/05/13 02:28:37;;;;;;;;;;;;;;;18.88;64.90;101856.13;1247061;23;651;-62
2023/05/13 02:29:27;;;;;;;;;;;;;;;18.86;65.48;101858.09;1251311;23;590;-62
2023/05/13 02:30:17;;;;;;;;;;;;;;;18.84;65.93;101859.19;1251087;23;645;-62
2023/05/13 02:31:08;;;;;;;;;;;;;;;18.86;65.36;101859.94;1250896;23;681;-62
2023/05/13 02:31:58;;;;;;;;;;;;;;;18.85;65.29;101850.97;1251070;23;618;-62
2023/05/13 02:32:49;;;;;;;;;;;;;;;18.86;65.34;101854.53;1247113;23;651;-62
2023/05/13 02:33:39;;;;;;;;;;;;;;;18.86;65.70;101858.09;1251264;23;759;-62
2023/05/13 02:34:29;;;;;;;;;;;;;;;18.85;66.26;101848.28;1247211;23;694;-62
2023/05/13 02:35:21;;;;;;;;;;;;;;;18.86;65.69;101858.09;1247839;23;627;-62
2023/05/13 02:36:11;;;;;;;;;;;;;;;18.86;65.13;101854.53;1247476;23;711;-63
2023/05/13 02:37:02;;;;;;;;;;;;;;;18.86;65.63;101857.22;1249566;23;654;-62
2023/05/13 02:37:53;;;;;;;;;;;;;;;18.86;65.99;101854.53;1251290;23;574;-62
2023/05/13 02:38:43;;;;;;;;;;;;;;;18.84;65.79;101851.09;1251183;23;598;-62
2023/05/13 02:39:34;;;;;;;;;;;;;;;18.84;65.58;101853.81;1251155;23;704;-62
2023/05/13 02:40:25;;;;;;;;;;;;;;;18.82;66.09;101851.22;1250932;23;680;-62
2023/05/13 02:41:15;;;;;;;;;;;;;;;18.81;65.76;101859.50;1251162;23;598;-62
2023/05/13 02:42:06;;;;;;;;;;;;;;;18.81;65.41;101848.69;1249459;23;630;-62
2023/05/13 02:42:56;;;;;;;;;;;;;;;18.81;65.79;101854.91;1251149;23;594;-62
2023/05/13 02:43:47;;;;;;;;;;;;;;;18.81;65.62;101860.31;1251061;23;624;-62
2023/05/13 02:44:37;;;;;;;;;;;;;;;18.83;66.00;101857.47;1251217;23;625;-62
2023/05/13 02:45:27;;;;;;;;;;;;;;;18.82;65.59;101858.47;1249511;23;741;-62
2023/05/13 02:46:18;;;;;;;;;;;;;;;18.81;65.80;101860.31;1247709;23;635;-62
2023/05/13 02:47:08;;;;;;;;;;;;;;;18.82;65.72;101853.94;1247285;23;615;-62
2023/05/13 02:47:59;;;;;;;;;;;;;;;18.81;64.97;101851.38;1249853;23;764;-62
2023/05/13 02:48:49;;;;;;;;;;;;;;;18.80;65.93;101852.38;1249110;23;682;-62
2023/05/13 02:49:40;;;;;;;;;;;;;;;18.78;65.45;101854.34;1249443;23;666;-62
2023/05/13 02:50:30;;;;;;;;;;;;;;;18.76;65.47;101862.56;1251238;23;637;-62
2023/05/13 02:51:20;;;;;;;;;;;;;;;18.78;65.93;101855.19;1251109;23;649;-62
2023/05/13 02:52:11;;;;;;;;;;;;;;;18.80;65.76;101857.78;1247339;23;623;-62
2023/05/13 02:53:01;;;;;;;;;;;;;;;18.77;66.05;101850.78;1251181;23;625;-62
2023/05/13 02:53:52;;;;;;;;;;;;;;;18.76;65.57;101848.19;1247229;23;649;-62
2023/05/13 02:54:42;;;;;;;;;;;;;;;18.76;65.30;101857.16;1246779;23;690;-62
2023/05/13 02:55:33;;;;;;;;;;;;;;;18.76;66.50;101854.47;1249485;23;642;-62
2023/05/13 02:56:23;;;;;;;;;;;;;;;18.75;66.00;101850.03;1251221;23;599;-62
2023/05/13 02:57:13;;;;;;;;;;;;;;;18.75;66.14;101857.28;1247062;23;615;-62
2023/05/13 02:58:04;;;;;;;;;;;;;;;18.73;65.95;101844.78;1250889;23;661;-62
2023/05/13 02:58:54;;;;;;;;;;;;;;;18.73;66.45;101855.56;1251242;23;661;-62
2023/05/13 02:59:45;;;;;;;;;;;;;;;18.72;66.27;101848.44;1246454;23;1964;-63
2023/05/13 03:00:35;;;;;;;;;;;;;;;18.73;66.03;101852.00;1251088;23;653;-63
2023/05/13 03:01:26;;;;;;;;;;;;;;;18.73;65.53;101852.00;1250978;23;602;-62
2023/05/13 03:02:16;;;;;;;;;;;;;;;18.72;66.01;101856.56;1246951;23;639;-62
2023/05/13 03:03:07;;;;;;;;;;;;;;;18.72;66.08;101856.56;1251054;23;674;-63
2023/05/13 03:03:57;;;;;;;;;;;;;;;18.74;66.18;101853.72;1251247;23;661;-62
2023/05/13 03:04:48;;;;;;;;;;;;;;;18.75;65.41;101851.88;1251010;23;840;-62
2023/05/13 03:05:38;;;;;;;;;;;;;;;18.73;65.21;101858.28;1251415;23;646;-62
2023/05/13 03:06:29;;;;;;;;;;;;;;;18.69;65.17;101855.94;1251043;23;690;-62
2023/05/13 03:07:19;;;;;;;;;;;;;;;18.69;66.57;101855.94;1250911;23;646;-62
2023/05/13 03:08:10;;;;;;;;;;;;;;;18.70;65.79;101857.66;1251190;23;606;-62
2023/05/13 03:09:00;;;;;;;;;;;;;;;18.70;65.65;101866.63;1250882;23;669;-64
2023/05/13 03:09:50;;;;;;;;;;;;;;;18.72;65.16;101853.84;1251156;23;614;-63
2023/05/13 03:10:41;;;;;;;;;;;;;;;18.71;66.05;101859.38;1250912;23;664;-62
2023/05/13 03:11:31;;;;;;;;;;;;;;;18.67;65.58;101856.06;1251237;23;650;-62
2023/05/13 03:12:22;;;;;;;;;;;;;;;18.67;66.22;101860.59;1250961;23;673;-62
2023/05/13 03:13:12;;;;;;;;;;;;;;;18.65;66.01;101857.16;1251222;23;682;-62
2023/05/13 03:14:03;;;;;;;;;;;;;;;18.66;66.28;101859.75;1250351;23;594;-62
2023/05/13 03:14:53;;;;;;;;;;;;;;;18.66;66.14;101858.88;1250890;23;608;-62
2023/05/13 03:15:43;;;;;;;;;;;;;;;18.66;65.95;101856.19;1251119;23;638;-62
2023/05/13 03:16:34;;;;;;;;;;;;;;;18.66;65.79;101848.09;1251092;23;609;-62
2023/05/13 03:17:24;;;;;;;;;;;;;;;18.65;65.95;101852.63;1251184;23;642;-62
2023/05/13 03:18:15;;;;;;;;;;;;;;;18.67;66.14;101852.50;1247555;23;625;-62
2023/05/13 03:19:05;;;;;;;;;;;;;;;18.67;66.01;101847.97;1247175;23;709;-62
2023/05/13 03:19:56;;;;;;;;;;;;;;;18.67;66.34;101852.50;1247859;23;1937;-62
2023/05/13 03:20:46;;;;;;;;;;;;;;;18.66;65.56;101862.44;1246881;23;631;-63
2023/05/13 03:21:37;;;;;;;;;;;;;;;18.65;66.57;101849.06;1250986;23;670;-62
2023/05/13 03:22:28;;;;;;;;;;;;;;;18.64;65.84;101850.06;1251067;23;614;-62
2023/05/13 03:23:18;;;;;;;;;;;;;;;18.63;66.11;101856.47;1251153;23;634;-62
2023/05/13 03:24:09;;;;;;;;;;;;;;;18.63;66.23;101861.88;1250981;23;708;-62
2023/05/13 03:24:59;;;;;;;;;;;;;;;18.62;66.15;101854.75;1251061;23;634;-62
2023/05/13 03:25:50;;;;;;;;;;;;;;;18.60;65.92;101859.41;1251023;23;614;-62
2023/05/13 03:26:40;;;;;;;;;;;;;;;18.58;65.80;101856.81;1250827;23;611;-62
2023/05/13 03:27:30;;;;;;;;;;;;;;;18.59;65.54;101860.41;1251054;23;657;-62
2023/05/13 03:28:21;;;;;;;;;;;;;;;18.57;66.18;101860.50;1250808;23;663;-62
2023/05/13 03:29:12;;;;;;;;;;;;;;;18.57;66.33;101856.94;1246985;23;646;-62
2023/05/13 03:30:02;;;;;;;;;;;;;;;18.57;66.44;101857.78;1246709;23;615;-62
2023/05/13 03:30:53;;;;;;;;;;;;;;;18.58;66.08;101853.25;1250920;23;642;-62
2023/05/13 03:31:43;;;;;;;;;;;;;;;18.57;66.37;101860.50;1251095;23;629;-62
2023/05/13 03:32:34;;;;;;;;;;;;;;;18.55;66.17;101856.19;1251151;23;622;-62
2023/05/13 03:33:24;;;;;;;;;;;;;;;18.54;65.94;101860.75;1246886;23;654;-62
2023/05/13 03:34:14;;;;;;;;;;;;;;;18.54;65.78;101863.44;1251140;23;669;-62
2023/05/13 03:35:05;;;;;;;;;;;;;;;18.53;66.11;101866.25;1250890;23;607;-62
2023/05/13 03:35:55;;;;;;;;;;;;;;;18.52;66.31;101859.16;1251096;23;669;-62
2023/05/13 03:36:46;;;;;;;;;;;;;;;18.52;65.71;101865.41;1250879;23;554;-62
2023/05/13 03:37:36;;;;;;;;;;;;;;;18.52;66.03;101865.41;1251254;23;641;-62
2023/05/13 03:38:27;;;;;;;;;;;;;;;18.53;66.00;101872.53;1251112;23;677;-62
2023/05/13 03:39:17;;;;;;;;;;;;;;;18.52;65.58;101868.09;1251098;23;595;-62
2023/05/13 03:40:08;;;;;;;;;;;;;;;18.52;66.45;101867.25;1246984;23;1932;-62
2023/05/13 03:40:58;;;;;;;;;;;;;;;18.52;66.58;101867.25;1246722;23;619;-62
2023/05/13 03:41:48;;;;;;;;;;;;;;;18.52;66.24;101864.53;1251144;23;582;-62
2023/05/13 03:42:39;;;;;;;;;;;;;;;18.52;65.50;101867.25;1250938;23;656;-62
2023/05/13 03:43:29;;;;;;;;;;;;;;;18.54;66.47;101862.59;1251254;23;606;-62
2023/05/13 03:44:20;;;;;;;;;;;;;;;18.52;66.76;101869.94;1250986;23;653;-62
2023/05/13 03:45:10;;;;;;;;;;;;;;;18.50;66.41;101867.38;1251184;23;621;-62
2023/05/13 03:46:01;;;;;;;;;;;;;;;18.50;66.42;101866.50;1251087;23;672;-62
2023/05/13 03:46:51;;;;;;;;;;;;;;;18.49;66.50;101860.25;1247626;23;678;-62
2023/05/13 03:47:41;;;;;;;;;;;;;;;18.49;65.88;101862.94;1247125;23;615;-62
2023/05/13 03:48:32;;;;;;;;;;;;;;;18.50;66.10;101863.81;1249814;23;669;-62
2023/05/13 03:49:22;;;;;;;;;;;;;;;18.50;66.38;101866.50;1248918;23;669;-62
2023/05/13 03:50:13;;;;;;;;;;;;;;;18.50;66.56;101867.38;1249463;23;607;-62
2023/05/13 03:51:03;;;;;;;;;;;;;;;18.50;66.28;101866.50;1251199;23;596;-62
2023/05/13 03:51:53;;;;;;;;;;;;;;;18.50;66.36;101866.50;1251054;23;649;-62
2023/05/13 03:52:44;;;;;;;;;;;;;;;18.47;66.20;101873.00;1250871;23;610;-62
2023/05/13 03:53:34;;;;;;;;;;;;;;;18.46;66.46;101865.91;1247367;23;643;-62
2023/05/13 03:54:25;;;;;;;;;;;;;;;18.46;66.20;101865.91;1247447;23;657;-62
2023/05/13 03:55:15;;;;;;;;;;;;;;;18.46;66.24;101867.72;1247656;23;618;-62
2023/05/13 03:56:06;;;;;;;;;;;;;;;18.45;65.75;101866.88;1250901;23;617;-62
2023/05/13 03:56:56;;;;;;;;;;;;;;;18.45;66.43;101868.75;1247199;23;622;-62
2023/05/13 03:57:46;;;;;;;;;;;;;;;18.48;66.63;101868.47;1250495;23;601;-63
2023/05/13 03:58:37;;;;;;;;;;;;;;;18.47;66.24;101874.84;1251047;23;625;-63
2023/05/13 03:59:28;;;;;;;;;;;;;;;18.46;66.26;101865.03;1250862;23;629;-63
2023/05/13 04:00:18;;;;;;;;;;;;;;;18.47;66.07;101874.84;1249298;23;769;-62
2023/05/13 04:01:09;;;;;;;;;;;;;;;18.48;66.05;101874.72;1250950;23;657;-63
2023/05/13 04:01:59;;;;;;;;;;;;;;;18.45;66.50;101872.28;1247224;23;699;-63
2023/05/13 04:02:49;;;;;;;;;;;;;;;18.47;66.45;101874.84;1251003;23;618;-62
2023/05/13 04:03:43;;;;;;;;;;;;;;;18.49;65.97;101875.59;1249360;23;630;-62
2023/05/13 04:04:33;;;;;;;;;;;;;;;18.49;65.94;101875.59;1250893;23;657;-62
2023/05/13 04:05:23;;;;;;;;;;;;;;;18.49;66.22;101870.19;1251121;23;649;-62
2023/05/13 04:06:14;;;;;;;;;;;;;;;18.49;65.77;101875.59;1247110;23;623;-62
2023/05/13 04:07:04;;;;;;;;;;;;;;;18.48;66.39;101874.72;1251222;23;731;-62
2023/05/13 04:07:55;;;;;;;;;;;;;;;18.50;66.22;101877.31;1246417;23;724;-62
2023/05/13 04:08:45;;;;;;;;;;;;;;;18.47;65.90;101872.16;1250970;23;654;-62
2023/05/13 04:09:36;;;;;;;;;;;;;;;18.47;66.45;101872.16;1251383;23;691;-62
2023/05/13 04:10:26;;;;;;;;;;;;;;;18.46;65.99;101875.84;1251334;23;720;-63
2023/05/13 04:11:17;;;;;;;;;;;;;;;18.45;66.34;101879.53;1251212;23;637;-63
2023/05/13 04:12:07;;;;;;;;;;;;;;;18.45;66.50;101874.16;1248823;23;709;-62
2023/05/13 04:12:58;;;;;;;;;;;;;;;18.44;66.36;101867.91;1251321;23;672;-62
2023/05/13 04:13:48;;;;;;;;;;;;;;;18.44;66.01;101873.28;1250992;23;609;-62
2023/05/13 04:14:39;;;;;;;;;;;;;;;18.44;65.68;101880.53;1247129;23;623;-62
2023/05/13 04:15:30;;;;;;;;;;;;;;;18.42;66.86;101871.69;1247563;23;643;-62
2023/05/13 04:16:21;;;;;;;;;;;;;;;18.41;65.71;101872.69;1251443;23;602;-62
2023/05/13 04:17:11;;;;;;;;;;;;;;;18.41;65.71;101876.22;1251495;23;610;-62
2023/05/13 04:18:02;;;;;;;;;;;;;;;18.42;65.74;101874.41;1251318;23;685;-62
2023/05/13 04:18:52;;;;;;;;;;;;;;;18.39;66.33;101870.97;1251588;23;661;-62
2023/05/13 04:19:43;;;;;;;;;;;;;;;18.40;66.21;101871.81;1247325;23;611;-62
2023/05/13 04:20:33;;;;;;;;;;;;;;;18.40;65.99;101871.81;1247175;23;619;-62
2023/05/13 04:21:24;;;;;;;;;;;;;;;18.39;66.39;101872.81;1251275;23;633;-62
2023/05/13 04:22:14;;;;;;;;;;;;;;;18.38;66.00;101869.25;1251554;23;653;-62
2023/05/13 04:23:05;;;;;;;;;;;;;;;18.36;66.91;101875.75;1250998;23;629;-62
2023/05/13 04:23:55;;;;;;;;;;;;;;;18.36;65.58;101873.91;1251136;23;672;-62
2023/05/13 04:24:46;;;;;;;;;;;;;;;18.36;65.76;101875.75;1251303;23;655;-63
2023/05/13 04:25:36;;;;;;;;;;;;;;;18.35;66.66;101877.59;1247660;23;631;-62
2023/05/13 04:26:27;;;;;;;;;;;;;;;18.34;66.15;101875.88;1249075;23;604;-62